createdAt,value
2023-03-07T00:01:56.413Z,2.82
2023-03-07T00:04:23.541Z,2.75
2023-03-07T00:06:52.373Z,2.87
2023-03-07T00:09:18.793Z,2.75
2023-03-07T00:11:45.184Z,2.85
2023-03-07T00:14:11.605Z,2.76
2023-03-07T00:16:38.004Z,2.69
2023-03-07T00:19:04.780Z,2.75
2023-03-07T00:21:31.940Z,2.74
2023-03-07T00:23:58.333Z,2.78
2023-03-07T00:26:26.307Z,2.60
2023-03-07T00:28:54.860Z,2.66
2023-03-07T00:31:22.767Z,2.57
2023-03-07T00:33:49.484Z,2.52
2023-03-07T00:36:18.035Z,2.41
2023-03-07T00:38:45.891Z,2.40
2023-03-07T00:41:14.616Z,2.39
2023-03-07T00:43:41.410Z,2.36
2023-03-07T00:46:08.449Z,2.42
2023-03-07T00:48:37.127Z,2.49
2023-03-07T00:51:04.721Z,2.56
2023-03-07T00:53:31.336Z,2.46
2023-03-07T00:56:01.914Z,2.33
2023-03-07T00:58:31.353Z,2.28
2023-03-07T01:00:58.650Z,2.18
2023-03-07T01:03:26.303Z,2.20
2023-03-07T01:05:54.009Z,2.22
2023-03-07T01:08:21.892Z,2.32
2023-03-07T01:10:49.365Z,2.19
2023-03-07T01:13:18.810Z,2.34
2023-03-07T01:15:45.819Z,2.46
2023-03-07T01:18:14.245Z,2.42
2023-03-07T01:20:41.298Z,2.43
2023-03-07T01:23:07.986Z,2.52
2023-03-07T01:25:38.491Z,2.51
2023-03-07T01:28:05.733Z,2.42
2023-03-07T01:30:33.710Z,2.34
2023-03-07T01:33:01.858Z,2.36
2023-03-07T01:35:29.220Z,2.37
2023-03-07T01:37:57.185Z,2.50
2023-03-07T01:40:23.999Z,2.52
2023-03-07T01:42:55.112Z,2.59
2023-03-07T01:46:00.978Z,2.66
2023-03-07T01:48:28.404Z,2.63
2023-03-07T01:50:55.085Z,2.57
2023-03-07T01:53:21.596Z,2.59
2023-03-07T01:55:51.500Z,2.62
2023-03-07T01:58:19.285Z,2.61
2023-03-07T02:00:46.579Z,2.54
2023-03-07T02:03:20.948Z,2.60
2023-03-07T02:05:55.000Z,2.34
2023-03-07T02:08:26.168Z,2.46
2023-03-07T02:10:56.606Z,2.54
2023-03-07T02:13:23.236Z,2.44
2023-03-07T02:15:50.983Z,2.38
2023-03-07T02:18:20.529Z,2.38
2023-03-07T02:20:54.061Z,2.54
2023-03-07T02:23:31.221Z,2.48
2023-03-07T02:26:03.704Z,2.44
2023-03-07T02:28:31.333Z,2.59
2023-03-07T02:30:59.773Z,2.56
2023-03-07T02:33:29.781Z,2.61
2023-03-07T02:36:05.055Z,2.58
2023-03-07T02:38:37.340Z,2.71
2023-03-07T02:41:05.557Z,2.61
2023-03-07T02:43:34.938Z,2.69
2023-03-07T02:46:02.574Z,2.67
2023-03-07T02:48:29.555Z,2.64
2023-03-07T02:50:56.814Z,2.65
2023-03-07T02:53:23.640Z,2.55
2023-03-07T02:55:50.107Z,2.68
2023-03-07T02:58:16.881Z,2.65
2023-03-07T03:00:44.091Z,2.70
2023-03-07T03:03:11.333Z,2.64
2023-03-07T03:05:37.865Z,2.66
2023-03-07T03:08:05.382Z,2.66
2023-03-07T03:10:32.099Z,2.60
2023-03-07T03:13:00.154Z,2.74
2023-03-07T03:15:26.778Z,2.65
2023-03-07T03:17:54.364Z,2.77
2023-03-07T03:20:21.028Z,2.81
2023-03-07T03:22:47.650Z,2.76
2023-03-07T03:25:15.260Z,2.76
2023-03-07T03:27:43.764Z,2.70
2023-03-07T03:30:12.405Z,2.70
2023-03-07T03:32:40.587Z,2.69
2023-03-07T03:35:10.698Z,2.71
2023-03-07T03:37:37.512Z,2.78
2023-03-07T03:40:14.801Z,2.74
2023-03-07T03:42:43.895Z,2.78
2023-03-07T03:45:14.059Z,2.74
2023-03-07T03:47:40.808Z,2.70
2023-03-07T03:50:08.880Z,2.68
2023-03-07T03:52:36.760Z,2.72
2023-03-07T03:55:03.951Z,2.63
2023-03-07T03:57:30.549Z,2.68
2023-03-07T03:59:56.985Z,2.62
2023-03-07T04:02:24.106Z,2.44
2023-03-07T04:04:51.026Z,2.51
2023-03-07T04:07:17.486Z,2.40
2023-03-07T04:09:45.698Z,2.48
2023-03-07T04:12:12.524Z,2.48
2023-03-07T04:14:38.988Z,2.48
2023-03-07T04:17:05.611Z,2.58
2023-03-07T04:19:32.468Z,2.55
2023-03-07T04:21:59.486Z,2.42
2023-03-07T04:24:28.922Z,2.49
2023-03-07T04:26:56.134Z,2.43
2023-03-07T04:29:22.746Z,2.53
2023-03-07T04:31:54.033Z,2.40
2023-03-07T04:34:20.853Z,2.54
2023-03-07T04:36:47.474Z,2.38
2023-03-07T04:39:14.164Z,2.40
2023-03-07T04:41:40.932Z,2.48
2023-03-07T04:44:16.420Z,2.35
2023-03-07T04:46:43.168Z,2.23
2023-03-07T04:49:09.906Z,2.18
2023-03-07T04:51:36.589Z,2.24
2023-03-07T04:54:03.201Z,2.05
2023-03-07T04:56:30.072Z,2.05
2023-03-07T04:58:57.094Z,2.08
2023-03-07T05:01:24.290Z,2.09
2023-03-07T05:03:50.986Z,1.91
2023-03-07T05:06:19.661Z,1.91
2023-03-07T05:08:48.995Z,1.86
2023-03-07T05:11:26.346Z,1.86
2023-03-07T05:13:53.311Z,1.86
2023-03-07T05:16:21.950Z,1.88
2023-03-07T05:18:49.420Z,1.88
2023-03-07T05:21:16.299Z,1.80
2023-03-07T05:23:42.925Z,1.84
2023-03-07T05:26:11.094Z,1.70
2023-03-07T05:28:38.069Z,1.61
2023-03-07T05:31:04.934Z,1.71
2023-03-07T05:33:31.838Z,1.64
2023-03-07T05:36:00.083Z,1.56
2023-03-07T05:38:26.936Z,1.49
2023-03-07T05:40:54.263Z,1.49
2023-03-07T05:43:20.912Z,1.55
2023-03-07T05:45:47.441Z,1.50
2023-03-07T05:48:14.308Z,1.48
2023-03-07T05:50:41.995Z,1.43
2023-03-07T05:53:09.208Z,1.36
2023-03-07T05:55:35.788Z,1.53
2023-03-07T05:58:02.447Z,1.82
2023-03-07T06:00:28.971Z,1.79
2023-03-07T06:03:01.608Z,1.75
2023-03-07T06:05:29.192Z,1.88
2023-03-07T06:07:56.317Z,1.73
2023-03-07T06:10:25.032Z,1.71
2023-03-07T06:12:52.215Z,1.73
2023-03-07T06:15:19.109Z,1.57
2023-03-07T06:17:47.229Z,1.82
2023-03-07T06:20:15.315Z,1.76
2023-03-07T06:22:42.028Z,1.92
2023-03-07T06:25:09.327Z,1.94
2023-03-07T06:27:37.343Z,1.90
2023-03-07T06:30:06.406Z,1.88
2023-03-07T06:32:33.179Z,1.90
2023-03-07T06:35:00.469Z,1.98
2023-03-07T06:37:27.310Z,1.95
2023-03-07T06:39:56.772Z,2.19
2023-03-07T06:42:23.331Z,2.22
2023-03-07T06:44:50.530Z,2.26
2023-03-07T06:47:16.957Z,2.41
2023-03-07T06:49:43.509Z,2.30
2023-03-07T06:52:10.137Z,2.11
2023-03-07T06:54:36.545Z,2.20
2023-03-07T06:57:03.370Z,2.20
2023-03-07T06:59:29.819Z,2.39
2023-03-07T07:01:56.966Z,2.24
2023-03-07T07:04:23.655Z,2.20
2023-03-07T07:06:51.641Z,2.24
2023-03-07T07:09:18.616Z,2.40
2023-03-07T07:11:45.105Z,2.41
2023-03-07T07:14:12.437Z,2.53
2023-03-07T07:16:39.886Z,2.59
2023-03-07T07:19:08.708Z,2.64
2023-03-07T07:21:35.690Z,2.72
2023-03-07T07:24:02.612Z,2.64
2023-03-07T07:26:29.663Z,2.68
2023-03-07T07:28:58.128Z,2.65
2023-03-07T07:31:24.916Z,2.63
2023-03-07T07:33:51.550Z,2.84
2023-03-07T07:36:19.106Z,2.94
2023-03-07T07:38:45.620Z,2.87
2023-03-07T07:41:12.263Z,2.82
2023-03-07T07:43:38.845Z,2.77
2023-03-07T07:46:18.403Z,2.85
2023-03-07T07:48:46.712Z,2.85
2023-03-07T07:51:13.436Z,3.11
2023-03-07T07:53:41.165Z,2.99
2023-03-07T07:56:08.184Z,3.02
2023-03-07T07:58:35.505Z,3.15
2023-03-07T08:01:12.432Z,3.17
2023-03-07T08:03:38.904Z,3.33
2023-03-07T08:06:05.811Z,3.31
2023-03-07T08:08:32.342Z,3.29
2023-03-07T08:10:59.466Z,3.45
2023-03-07T08:13:26.252Z,3.37
2023-03-07T08:15:52.739Z,3.56
2023-03-07T08:18:19.241Z,3.52
2023-03-07T08:20:45.747Z,3.63
2023-03-07T08:23:12.235Z,3.53
2023-03-07T08:25:38.740Z,3.50
2023-03-07T08:28:05.909Z,3.63
2023-03-07T08:30:35.072Z,3.85
2023-03-07T08:33:04.193Z,3.80
2023-03-07T08:35:30.817Z,3.86
2023-03-07T08:37:59.082Z,3.96
2023-03-07T08:40:26.748Z,3.83
2023-03-07T08:42:54.383Z,4.10
2023-03-07T08:45:22.877Z,4.21
2023-03-07T08:47:53.226Z,4.15
2023-03-07T08:50:20.009Z,4.03
2023-03-07T08:52:46.571Z,4.00
2023-03-07T08:55:12.990Z,4.13
2023-03-07T08:57:39.407Z,4.32
2023-03-07T09:00:08.808Z,4.51
2023-03-07T09:02:35.882Z,4.70
2023-03-07T09:05:02.458Z,5.29
2023-03-07T09:07:29.016Z,5.04
2023-03-07T09:09:55.535Z,4.73
2023-03-07T09:12:22.059Z,4.72
2023-03-07T09:14:51.147Z,5.00
2023-03-07T09:17:18.361Z,4.88
2023-03-07T09:19:45.453Z,5.05
2023-03-07T09:22:11.894Z,4.99
2023-03-07T09:24:38.330Z,5.05
2023-03-07T09:27:04.867Z,5.06
2023-03-07T09:29:31.417Z,5.01
2023-03-07T09:31:57.914Z,5.31
2023-03-07T09:34:24.330Z,5.66
2023-03-07T09:36:51.631Z,5.41
2023-03-07T09:39:20.026Z,5.34
2023-03-07T09:41:59.961Z,5.48
2023-03-07T09:45:01.816Z,5.35
2023-03-07T09:48:14.973Z,5.13
2023-03-07T09:50:49.574Z,5.17
2023-03-07T09:53:21.758Z,5.27
2023-03-07T09:55:50.636Z,5.32
2023-03-07T09:58:22.369Z,5.39
2023-03-07T10:00:53.599Z,5.38
2023-03-07T10:03:31.911Z,5.45
2023-03-07T10:06:14.030Z,6.08
2023-03-07T10:08:41.141Z,5.99
2023-03-07T10:11:22.646Z,6.31
2023-03-07T10:14:06.236Z,5.83
2023-03-07T10:16:40.493Z,5.93
2023-03-07T10:19:19.453Z,6.05
2023-03-07T10:21:52.771Z,6.92
2023-03-07T10:24:43.024Z,6.27
2023-03-07T10:27:12.001Z,6.46
2023-03-07T10:29:46.142Z,6.21
2023-03-07T10:32:22.966Z,6.35
2023-03-07T10:34:55.833Z,6.34
2023-03-07T10:37:29.084Z,6.49
2023-03-07T10:39:56.571Z,6.41
2023-03-07T10:42:25.087Z,5.93
2023-03-07T10:44:51.870Z,6.27
2023-03-07T10:47:20.810Z,6.24
2023-03-07T10:49:49.485Z,6.43
2023-03-07T10:52:28.851Z,6.26
2023-03-07T10:55:11.863Z,6.18
2023-03-07T10:57:38.334Z,6.55
2023-03-07T11:00:15.548Z,6.57
2023-03-07T11:02:47.238Z,6.73
2023-03-07T11:05:25.113Z,6.66
2023-03-07T11:07:51.548Z,6.65
2023-03-07T11:10:30.804Z,6.64
2023-03-07T11:12:57.886Z,6.72
2023-03-07T11:15:25.443Z,6.61
2023-03-07T11:17:52.352Z,6.55
2023-03-07T11:20:20.690Z,6.49
2023-03-07T11:22:47.259Z,6.58
2023-03-07T11:25:18.215Z,6.36
2023-03-07T11:27:51.092Z,6.35
2023-03-07T11:30:20.471Z,6.49
2023-03-07T11:32:52.621Z,6.62
2023-03-07T11:35:22.716Z,6.52
2023-03-07T11:38:01.331Z,6.39
2023-03-07T11:40:33.497Z,6.50
2023-03-07T11:43:11.094Z,6.77
2023-03-07T11:45:48.268Z,6.75
2023-03-07T11:48:26.955Z,6.46
2023-03-07T11:50:56.678Z,6.79
2023-03-07T11:53:47.951Z,7.36
2023-03-07T11:56:23.884Z,7.36
2023-03-07T11:59:22.710Z,7.50
2023-03-07T12:01:54.689Z,7.39
2023-03-07T12:04:52.938Z,7.10
2023-03-07T12:07:51.142Z,7.21
2023-03-07T12:10:29.819Z,7.70
2023-03-07T12:13:08.186Z,7.56
2023-03-07T12:15:41.424Z,7.64
2023-03-07T12:18:45.719Z,8.17
2023-03-07T12:21:28.005Z,7.77
2023-03-07T12:23:59.601Z,7.97
2023-03-07T12:26:31.052Z,7.74
2023-03-07T12:29:03.672Z,7.42
2023-03-07T12:31:36.180Z,7.51
2023-03-07T12:34:06.952Z,7.51
2023-03-07T12:36:40.732Z,7.27
2023-03-07T12:39:19.104Z,7.36
2023-03-07T12:41:57.189Z,7.46
2023-03-07T12:44:34.000Z,7.41
2023-03-07T12:47:10.559Z,7.27
2023-03-07T12:49:49.648Z,7.87
2023-03-07T12:52:29.932Z,7.84
2023-03-07T12:55:01.114Z,7.62
2023-03-07T12:57:34.153Z,7.61
2023-03-07T13:00:04.875Z,7.60
2023-03-07T13:02:41.534Z,7.86
2023-03-07T13:05:17.992Z,7.74
2023-03-07T13:07:45.818Z,8.06
2023-03-07T13:10:17.318Z,8.10
2023-03-07T13:12:43.897Z,8.44
2023-03-07T13:16:00.394Z,8.39
2023-03-07T13:18:29.797Z,7.96
2023-03-07T13:21:32.533Z,8.01
2023-03-07T13:24:32.898Z,7.58
2023-03-07T13:26:59.670Z,7.90
2023-03-07T13:29:59.567Z,7.94
2023-03-07T13:32:57.710Z,8.05
2023-03-07T13:35:59.022Z,7.85
2023-03-07T13:38:32.024Z,8.11
2023-03-07T13:40:59.612Z,8.30
2023-03-07T13:44:00.599Z,8.37
2023-03-07T13:47:00.572Z,8.66
2023-03-07T13:49:51.110Z,7.86
2023-03-07T13:52:39.649Z,7.81
2023-03-07T13:55:24.291Z,7.82
2023-03-07T13:57:51.299Z,8.05
2023-03-07T14:00:30.003Z,7.80
2023-03-07T14:02:57.052Z,7.82
2023-03-07T14:05:24.119Z,7.94
2023-03-07T14:07:52.821Z,7.79
2023-03-07T14:10:23.849Z,7.90
2023-03-07T14:13:13.604Z,7.68
2023-03-07T14:15:54.271Z,7.78
2023-03-07T14:18:33.563Z,7.85
2023-03-07T14:21:08.804Z,8.29
2023-03-07T14:23:55.484Z,8.29
2023-03-07T14:26:26.171Z,8.29
2023-03-07T14:29:00.024Z,7.91
2023-03-07T14:31:30.265Z,7.98
2023-03-07T14:33:58.016Z,7.88
2023-03-07T14:36:28.798Z,8.08
2023-03-07T14:38:58.328Z,7.87
2023-03-07T14:41:36.009Z,8.03
2023-03-07T14:44:18.285Z,7.75
2023-03-07T14:46:59.505Z,7.93
2023-03-07T14:49:34.636Z,7.98
2023-03-07T14:52:02.250Z,8.05
2023-03-07T14:54:32.444Z,7.90
2023-03-07T14:57:01.286Z,8.02
2023-03-07T14:59:29.440Z,8.24
2023-03-07T15:01:57.243Z,8.43
2023-03-07T15:04:27.793Z,8.55
2023-03-07T15:06:56.280Z,8.28
2023-03-07T15:09:23.918Z,8.24
2023-03-07T15:11:58.024Z,8.34
2023-03-07T15:14:34.848Z,8.19
2023-03-07T15:17:05.029Z,8.33
2023-03-07T15:19:36.451Z,8.38
2023-03-07T15:22:06.351Z,8.42
2023-03-07T15:24:35.352Z,8.33
2023-03-07T15:27:04.116Z,8.05
2023-03-07T15:29:32.259Z,7.88
2023-03-07T15:32:01.965Z,7.96
2023-03-07T15:34:32.651Z,8.07
2023-03-07T15:37:19.796Z,7.83
2023-03-07T15:39:55.511Z,7.55
2023-03-07T15:42:22.722Z,7.71
2023-03-07T15:44:53.607Z,7.84
2023-03-07T15:47:20.580Z,7.77
2023-03-07T15:49:49.606Z,7.63
2023-03-07T15:52:25.212Z,7.55
2023-03-07T15:54:55.330Z,7.38
2023-03-07T15:57:30.386Z,7.27
2023-03-07T15:59:59.969Z,7.17
2023-03-07T16:02:42.248Z,7.19
2023-03-07T16:05:31.186Z,7.16
2023-03-07T16:07:58.120Z,7.19
2023-03-07T16:10:27.788Z,7.10
2023-03-07T16:12:55.474Z,6.99
2023-03-07T16:15:23.651Z,6.87
2023-03-07T16:17:52.585Z,6.79
2023-03-07T16:20:21.992Z,6.83
2023-03-07T16:22:48.509Z,6.70
2023-03-07T16:25:15.895Z,6.64
2023-03-07T16:27:47.085Z,6.49
2023-03-07T16:30:18.040Z,6.49
2023-03-07T16:32:44.759Z,6.48
2023-03-07T16:35:16.403Z,6.45
2023-03-07T16:37:43.083Z,6.38
2023-03-07T16:40:11.429Z,6.31
2023-03-07T16:42:37.853Z,6.28
2023-03-07T16:45:11.367Z,6.21
2023-03-07T16:47:38.486Z,6.16
2023-03-07T16:50:11.794Z,6.02
2023-03-07T16:52:38.197Z,5.90
2023-03-07T16:55:05.684Z,5.77
2023-03-07T16:57:33.399Z,5.71
2023-03-07T16:59:59.954Z,5.63
2023-03-07T17:02:27.233Z,5.63
2023-03-07T17:04:54.330Z,5.55
2023-03-07T17:07:22.698Z,5.60
2023-03-07T17:09:49.315Z,5.52
2023-03-07T17:12:17.776Z,5.48
2023-03-07T17:14:44.720Z,5.37
2023-03-07T17:17:18.077Z,5.30
2023-03-07T17:19:44.708Z,5.28
2023-03-07T17:22:11.830Z,5.24
2023-03-07T17:24:38.242Z,5.27
2023-03-07T17:27:09.014Z,5.39
2023-03-07T17:29:39.617Z,5.70
2023-03-07T17:32:06.938Z,5.34
2023-03-07T17:34:34.904Z,5.20
2023-03-07T17:37:05.434Z,5.09
2023-03-07T17:39:33.924Z,5.01
2023-03-07T17:42:01.778Z,4.88
2023-03-07T17:44:28.479Z,4.86
2023-03-07T17:47:00.693Z,4.77
2023-03-07T17:49:33.225Z,4.65
2023-03-07T17:51:59.702Z,4.48
2023-03-07T17:54:32.924Z,4.40
2023-03-07T17:57:03.692Z,4.39
2023-03-07T17:59:32.107Z,4.41
2023-03-07T18:01:58.841Z,4.39
2023-03-07T18:04:27.778Z,4.31
2023-03-07T18:06:54.490Z,4.34
2023-03-07T18:09:22.288Z,4.25
2023-03-07T18:11:48.921Z,4.14
2023-03-07T18:14:18.335Z,4.04
2023-03-07T18:16:45.056Z,3.97
2023-03-07T18:19:25.289Z,3.94
2023-03-07T18:21:52.552Z,3.89
2023-03-07T18:24:21.092Z,3.75
2023-03-07T18:26:51.600Z,3.81
2023-03-07T18:29:19.352Z,3.89
2023-03-07T18:31:46.059Z,3.86
2023-03-07T18:34:12.901Z,3.76
2023-03-07T18:36:40.281Z,3.75
2023-03-07T18:39:07.553Z,3.69
2023-03-07T18:41:34.041Z,3.65
2023-03-07T18:44:00.484Z,3.47
2023-03-07T18:46:42.096Z,3.40
2023-03-07T18:49:09.655Z,3.18
2023-03-07T18:51:36.361Z,3.23
2023-03-07T18:54:03.024Z,3.26
2023-03-07T18:56:29.780Z,3.27
2023-03-07T18:58:58.395Z,3.16
2023-03-07T19:01:26.602Z,3.25
2023-03-07T19:03:55.211Z,3.17
2023-03-07T19:06:24.187Z,3.17
2023-03-07T19:08:51.264Z,3.08
2023-03-07T19:11:18.408Z,3.00
2023-03-07T19:13:45.094Z,2.89
2023-03-07T19:16:13.621Z,2.82
2023-03-07T19:18:41.022Z,2.78
2023-03-07T19:21:10.002Z,2.66
2023-03-07T19:23:37.068Z,2.57
2023-03-07T19:26:06.066Z,2.66
2023-03-07T19:28:33.064Z,2.65
2023-03-07T19:31:06.662Z,2.62
2023-03-07T19:33:33.198Z,2.67
2023-03-07T19:36:04.695Z,2.61
2023-03-07T19:38:31.820Z,2.55
2023-03-07T19:40:58.821Z,2.49
2023-03-07T19:43:25.649Z,2.47
2023-03-07T19:45:54.730Z,2.42
2023-03-07T19:48:22.141Z,2.47
2023-03-07T19:50:48.597Z,2.53
2023-03-07T19:53:15.136Z,2.63
2023-03-07T19:55:42.748Z,2.70
2023-03-07T19:58:09.216Z,2.76
2023-03-07T20:01:02.492Z,2.80
2023-03-07T20:03:28.970Z,2.81
2023-03-07T20:05:55.565Z,2.89
2023-03-07T20:08:22.078Z,2.95
2023-03-07T20:10:53.873Z,2.94
2023-03-07T20:13:24.576Z,2.94
2023-03-07T20:15:51.525Z,3.00
2023-03-07T20:18:18.573Z,3.04
2023-03-07T20:20:45.148Z,3.09
2023-03-07T20:23:11.536Z,3.22
2023-03-07T20:25:38.063Z,3.24
2023-03-07T20:28:06.571Z,3.26
2023-03-07T20:30:33.132Z,3.33
2023-03-07T20:32:59.653Z,3.37
2023-03-07T20:35:26.117Z,3.37
2023-03-07T20:37:52.552Z,3.45
2023-03-07T20:40:22.507Z,3.40
2023-03-07T20:42:48.976Z,3.38
2023-03-07T20:45:20.352Z,3.53
2023-03-07T20:47:49.954Z,3.55
2023-03-07T20:50:24.671Z,3.46
2023-03-07T20:53:03.547Z,3.43
2023-03-07T20:55:34.978Z,3.40
2023-03-07T20:58:01.694Z,3.41
2023-03-07T21:03:23.190Z,3.58
2023-03-07T21:05:52.157Z,3.62
2023-03-07T21:08:22.384Z,3.56
2023-03-07T21:10:57.517Z,3.50
2023-03-07T21:13:24.101Z,3.55
2023-03-07T21:15:53.274Z,3.36
2023-03-07T21:18:20.058Z,3.43
2023-03-07T21:20:46.481Z,3.37
2023-03-07T21:23:12.904Z,3.43
2023-03-07T21:25:39.456Z,3.43
2023-03-07T21:28:06.212Z,3.47
2023-03-07T21:30:33.285Z,3.50
2023-03-07T21:33:00.341Z,3.54
2023-03-07T21:35:26.871Z,3.53
2023-03-07T21:37:53.390Z,3.51
2023-03-07T21:40:20.685Z,3.55
2023-03-07T21:42:47.285Z,3.43
2023-03-07T21:45:14.075Z,3.53
2023-03-07T21:47:40.552Z,3.57
2023-03-07T21:50:09.201Z,3.56
2023-03-07T21:52:35.613Z,3.57
2023-03-07T21:55:02.090Z,3.65
2023-03-07T21:57:28.857Z,3.66
2023-03-07T21:59:55.316Z,3.68
2023-03-07T22:02:22.297Z,3.75
2023-03-07T22:04:49.010Z,3.76
2023-03-07T22:07:16.084Z,3.76
2023-03-07T22:09:42.472Z,3.80
2023-03-07T22:12:08.909Z,3.85
2023-03-07T22:14:35.442Z,3.81
2023-03-07T22:17:01.843Z,3.82
2023-03-07T22:19:28.706Z,3.76
2023-03-07T22:21:55.072Z,3.80
2023-03-07T22:24:22.090Z,3.75
2023-03-07T22:26:48.476Z,3.79
2023-03-07T22:29:14.874Z,3.82
2023-03-07T22:31:41.346Z,3.81
2023-03-07T22:34:07.816Z,3.83
2023-03-07T22:36:34.184Z,3.90
2023-03-07T22:39:00.639Z,4.70
2023-03-07T22:41:27.965Z,4.63
2023-03-07T22:43:54.877Z,4.23
2023-03-07T22:46:21.973Z,4.08
2023-03-07T22:48:51.704Z,4.00
2023-03-07T22:51:18.421Z,3.90
2023-03-07T22:53:45.119Z,4.02
2023-03-07T22:56:14.955Z,3.92
2023-03-07T22:58:42.060Z,3.88
2023-03-07T23:01:12.647Z,3.98
2023-03-07T23:03:39.177Z,4.00
2023-03-07T23:06:06.163Z,3.93
2023-03-07T23:08:32.624Z,4.02
2023-03-07T23:11:01.013Z,3.93
2023-03-07T23:13:27.408Z,3.99
2023-03-07T23:15:54.590Z,3.91
2023-03-07T23:18:21.087Z,3.97
2023-03-07T23:20:47.466Z,4.00
2023-03-07T23:23:14.096Z,3.93
2023-03-07T23:25:41.482Z,3.94
2023-03-07T23:28:08.202Z,3.99
2023-03-07T23:30:35.225Z,3.98
2023-03-07T23:33:02.376Z,3.92
2023-03-07T23:35:28.852Z,3.99
2023-03-07T23:37:55.548Z,3.97
2023-03-07T23:40:21.979Z,3.98
2023-03-07T23:42:48.402Z,3.94
2023-03-07T23:45:14.913Z,3.99
2023-03-07T23:47:41.386Z,4.02
2023-03-07T23:50:10.235Z,3.89
2023-03-07T23:52:36.709Z,3.86
2023-03-07T23:55:03.675Z,3.85
2023-03-07T23:57:30.055Z,3.91
2023-03-07T23:59:56.446Z,3.79
